Dolphin — WTD6974 — position and weather

sailwx.info

Track history (hours):
 
Tides and Currents Weather Stations Pressure Air Temp Water Temp Dewpoint Dewpoint Depression Visibility Wind Speed Wind Dir Waves Ship Positions

Dolphin

Owner: PENN MARITIME INC, Seattle, WA. More information available from US FCC via Universal Licensing System and Coast Guard Vessel Documentation Center.

Last reported at 2016-May-02 03:33 UTC. Time now 2016-May-02 03:39 UTC.
Position N 40°44' W 074°01'.

Length 41 m; draft 5.3 m.

Type: Towing. MMSI: 366920980.

Date/timePositionNaut miles runAvg speedWind from/ knotsBaromVisibWave heightAir tempDewpointWater temp
2016-May-02 03:33N 40°44' W 074°01'  
2016-Apr-28 14:34N 40°45' W 074°01'6 5.9
2016-Apr-28 13:33N 40°39' W 074°04'2 1.5
2016-Apr-28 12:31N 40°39' W 074°06'0 0.0
2016-Apr-28 11:19N 40°39' W 074°06'3 0.6
2016-Apr-28 05:26N 40°39' W 074°10'0 0.0
2016-Apr-27 17:10N 40°38' W 074°10'3 5.2
2016-Apr-27 16:33N 40°39' W 074°06'0 0.4
2016-Apr-27 15:31N 40°39' W 074°05'4 4.5
2016-Apr-27 14:33N 40°42' W 074°02'  
Track history (hours):
 
Tides and Currents Weather Stations Pressure Air Temp Water Temp Dewpoint Dewpoint Depression Visibility Wind Speed Wind Dir Waves Ship Positions

Dolphin

Owner: PENN MARITIME INC, Seattle, WA. More information available from US FCC via Universal Licensing System and Coast Guard Vessel Documentation Center.

Last reported at 2016-May-02 03:33 UTC. Time now 2016-May-02 03:39 UTC.
Position N 40°44' W 074°01'.

Length 41 m; draft 5.3 m.

Type: Towing. MMSI: 366920980.

Date/timePositionNaut miles runAvg speedWind from/ knotsBaromVisibWave heightAir tempDewpointWater temp
2016-May-02 03:33N 40°44' W 074°01'  
2016-Apr-28 14:34N 40°45' W 074°01'6 5.9
2016-Apr-28 13:33N 40°39' W 074°04'2 1.5
2016-Apr-28 12:31N 40°39' W 074°06'0 0.0
2016-Apr-28 11:19N 40°39' W 074°06'3 0.6
2016-Apr-28 05:26N 40°39' W 074°10'0 0.0
2016-Apr-27 17:10N 40°38' W 074°10'3 5.2
2016-Apr-27 16:33N 40°39' W 074°06'0 0.4
2016-Apr-27 15:31N 40°39' W 074°05'4 4.5
2016-Apr-27 14:33N 40°42' W 074°02'  

Dump ship's entire track history